sensor_id;sensor_type;location;lat;lon;timestamp;temperature;humidity
12885;DHT22;6510;51.362;7.370;2022-12-08T00:01:25;2.90;99.90
12885;DHT22;6510;51.362;7.370;2022-12-08T00:03:51;2.90;99.90
12885;DHT22;6510;51.362;7.370;2022-12-08T00:06:23;2.90;99.90
12885;DHT22;6510;51.362;7.370;2022-12-08T00:09:15;2.80;99.90
12885;DHT22;6510;51.362;7.370;2022-12-08T00:11:48;2.90;99.90
12885;DHT22;6510;51.362;7.370;2022-12-08T00:14:14;2.80;99.90
12885;DHT22;6510;51.362;7.370;2022-12-08T00:16:39;2.90;99.90
12885;DHT22;6510;51.362;7.370;2022-12-08T00:19:05;2.90;99.90
12885;DHT22;6510;51.362;7.370;2022-12-08T00:21:31;2.90;99.90
12885;DHT22;6510;51.362;7.370;2022-12-08T00:23:56;2.90;99.90
12885;DHT22;6510;51.362;7.370;2022-12-08T00:26:22;2.90;99.90
12885;DHT22;6510;51.362;7.370;2022-12-08T00:28:48;2.90;99.90
12885;DHT22;6510;51.362;7.370;2022-12-08T00:31:16;2.90;99.90
12885;DHT22;6510;51.362;7.370;2022-12-08T00:33:42;2.80;99.90
12885;DHT22;6510;51.362;7.370;2022-12-08T00:36:09;2.90;99.90
12885;DHT22;6510;51.362;7.370;2022-12-08T00:38:36;2.90;99.90
12885;DHT22;6510;51.362;7.370;2022-12-08T00:41:03;2.90;99.90
12885;DHT22;6510;51.362;7.370;2022-12-08T00:43:28;2.90;99.90
12885;DHT22;6510;51.362;7.370;2022-12-08T00:45:54;2.90;99.90
12885;DHT22;6510;51.362;7.370;2022-12-08T00:48:20;2.90;99.90
12885;DHT22;6510;51.362;7.370;2022-12-08T00:50:45;2.90;99.90
12885;DHT22;6510;51.362;7.370;2022-12-08T00:53:11;2.90;99.90
12885;DHT22;6510;51.362;7.370;2022-12-08T00:55:36;2.90;99.90
12885;DHT22;6510;51.362;7.370;2022-12-08T00:58:02;2.90;99.90
12885;DHT22;6510;51.362;7.370;2022-12-08T01:00:28;2.80;99.90
12885;DHT22;6510;51.362;7.370;2022-12-08T01:02:53;2.80;99.90
12885;DHT22;6510;51.362;7.370;2022-12-08T01:05:19;2.90;99.90
12885;DHT22;6510;51.362;7.370;2022-12-08T01:07:44;2.90;99.90
12885;DHT22;6510;51.362;7.370;2022-12-08T01:10:10;2.80;99.90
12885;DHT22;6510;51.362;7.370;2022-12-08T01:12:36;2.80;99.90
12885;DHT22;6510;51.362;7.370;2022-12-08T01:15:01;2.80;99.90
12885;DHT22;6510;51.362;7.370;2022-12-08T01:17:27;2.80;99.90
12885;DHT22;6510;51.362;7.370;2022-12-08T01:19:53;2.80;99.90
12885;DHT22;6510;51.362;7.370;2022-12-08T01:22:18;2.80;99.90
12885;DHT22;6510;51.362;7.370;2022-12-08T01:24:44;2.80;99.90
12885;DHT22;6510;51.362;7.370;2022-12-08T01:27:09;2.80;99.90
12885;DHT22;6510;51.362;7.370;2022-12-08T01:29:35;2.80;99.90
12885;DHT22;6510;51.362;7.370;2022-12-08T01:32:01;2.80;99.90
12885;DHT22;6510;51.362;7.370;2022-12-08T01:34:26;2.80;99.90
12885;DHT22;6510;51.362;7.370;2022-12-08T01:36:52;2.80;99.90
12885;DHT22;6510;51.362;7.370;2022-12-08T01:39:18;2.80;99.90
12885;DHT22;6510;51.362;7.370;2022-12-08T01:41:45;2.80;99.90
12885;DHT22;6510;51.362;7.370;2022-12-08T01:46:38;2.80;99.90
12885;DHT22;6510;51.362;7.370;2022-12-08T01:51:45;2.80;99.90
12885;DHT22;6510;51.362;7.370;2022-12-08T01:54:13;2.80;99.90
12885;DHT22;6510;51.362;7.370;2022-12-08T01:56:41;2.80;99.90
12885;DHT22;6510;51.362;7.370;2022-12-08T01:59:10;2.80;99.90
12885;DHT22;6510;51.362;7.370;2022-12-08T02:01:36;2.80;99.90
12885;DHT22;6510;51.362;7.370;2022-12-08T02:04:02;2.80;99.90
12885;DHT22;6510;51.362;7.370;2022-12-08T02:06:35;2.80;99.90
12885;DHT22;6510;51.362;7.370;2022-12-08T02:09:02;2.70;99.90
12885;DHT22;6510;51.362;7.370;2022-12-08T02:11:29;2.70;99.90
12885;DHT22;6510;51.362;7.370;2022-12-08T02:13:56;2.60;99.90
12885;DHT22;6510;51.362;7.370;2022-12-08T02:25:10;2.60;99.90
12885;DHT22;6510;51.362;7.370;2022-12-08T02:35:55;2.70;99.90
12885;DHT22;6510;51.362;7.370;2022-12-08T02:38:42;2.70;99.90
12885;DHT22;6510;51.362;7.370;2022-12-08T02:41:41;2.80;99.90
12885;DHT22;6510;51.362;7.370;2022-12-08T02:44:11;2.80;99.90
12885;DHT22;6510;51.362;7.370;2022-12-08T02:46:44;2.80;99.90
12885;DHT22;6510;51.362;7.370;2022-12-08T02:49:11;2.80;99.90
12885;DHT22;6510;51.362;7.370;2022-12-08T02:51:40;2.80;99.90
12885;DHT22;6510;51.362;7.370;2022-12-08T02:54:05;2.80;99.90
12885;DHT22;6510;51.362;7.370;2022-12-08T03:05:05;2.80;99.90
12885;DHT22;6510;51.362;7.370;2022-12-08T03:10:23;2.80;99.90
12885;DHT22;6510;51.362;7.370;2022-12-08T03:13:10;2.80;99.90
12885;DHT22;6510;51.362;7.370;2022-12-08T03:15:39;2.80;99.90
12885;DHT22;6510;51.362;7.370;2022-12-08T03:18:07;2.80;99.90
12885;DHT22;6510;51.362;7.370;2022-12-08T03:20:37;2.80;99.90
12885;DHT22;6510;51.362;7.370;2022-12-08T03:23:06;2.80;99.90
12885;DHT22;6510;51.362;7.370;2022-12-08T03:25:35;2.80;99.90
12885;DHT22;6510;51.362;7.370;2022-12-08T03:28:04;2.80;99.90
12885;DHT22;6510;51.362;7.370;2022-12-08T03:30:32;2.80;99.90
12885;DHT22;6510;51.362;7.370;2022-12-08T03:33:08;2.80;99.90
12885;DHT22;6510;51.362;7.370;2022-12-08T03:35:38;2.80;99.90
12885;DHT22;6510;51.362;7.370;2022-12-08T03:38:11;2.80;99.90
12885;DHT22;6510;51.362;7.370;2022-12-08T03:40:37;2.70;99.90
12885;DHT22;6510;51.362;7.370;2022-12-08T03:43:03;2.80;99.90
12885;DHT22;6510;51.362;7.370;2022-12-08T03:45:29;2.70;99.90
12885;DHT22;6510;51.362;7.370;2022-12-08T03:47:55;2.70;99.90
12885;DHT22;6510;51.362;7.370;2022-12-08T03:50:21;2.80;99.90
12885;DHT22;6510;51.362;7.370;2022-12-08T03:52:47;2.70;99.90
12885;DHT22;6510;51.362;7.370;2022-12-08T03:55:13;2.70;99.90
12885;DHT22;6510;51.362;7.370;2022-12-08T03:57:39;2.70;99.90
12885;DHT22;6510;51.362;7.370;2022-12-08T04:00:06;2.70;99.90
12885;DHT22;6510;51.362;7.370;2022-12-08T04:02:34;2.70;99.90
12885;DHT22;6510;51.362;7.370;2022-12-08T04:04:59;2.70;99.90
12885;DHT22;6510;51.362;7.370;2022-12-08T04:07:25;2.70;99.90
12885;DHT22;6510;51.362;7.370;2022-12-08T04:09:50;2.70;99.90
12885;DHT22;6510;51.362;7.370;2022-12-08T04:12:16;2.70;99.90
12885;DHT22;6510;51.362;7.370;2022-12-08T04:14:42;2.70;99.90
12885;DHT22;6510;51.362;7.370;2022-12-08T04:17:07;2.70;99.90
12885;DHT22;6510;51.362;7.370;2022-12-08T04:19:33;2.70;99.90
12885;DHT22;6510;51.362;7.370;2022-12-08T04:21:58;2.70;99.90
12885;DHT22;6510;51.362;7.370;2022-12-08T04:24:24;2.70;99.90
12885;DHT22;6510;51.362;7.370;2022-12-08T04:26:50;2.70;99.90
12885;DHT22;6510;51.362;7.370;2022-12-08T04:29:15;2.70;99.90
12885;DHT22;6510;51.362;7.370;2022-12-08T04:31:41;2.70;99.90
12885;DHT22;6510;51.362;7.370;2022-12-08T04:34:07;2.70;99.90
12885;DHT22;6510;51.362;7.370;2022-12-08T04:36:33;2.70;99.90
12885;DHT22;6510;51.362;7.370;2022-12-08T04:38:59;2.70;99.90
12885;DHT22;6510;51.362;7.370;2022-12-08T04:41:24;2.70;99.90
12885;DHT22;6510;51.362;7.370;2022-12-08T04:43:50;2.70;99.90
12885;DHT22;6510;51.362;7.370;2022-12-08T04:46:15;2.70;99.90
12885;DHT22;6510;51.362;7.370;2022-12-08T04:48:41;2.70;99.90
12885;DHT22;6510;51.362;7.370;2022-12-08T04:51:16;2.70;99.90
12885;DHT22;6510;51.362;7.370;2022-12-08T04:53:42;2.70;99.90
12885;DHT22;6510;51.362;7.370;2022-12-08T04:56:12;2.60;99.90
12885;DHT22;6510;51.362;7.370;2022-12-08T04:58:38;2.60;99.90
12885;DHT22;6510;51.362;7.370;2022-12-08T05:01:04;2.60;99.90
12885;DHT22;6510;51.362;7.370;2022-12-08T05:03:30;2.60;99.90
12885;DHT22;6510;51.362;7.370;2022-12-08T05:05:58;2.60;99.90
12885;DHT22;6510;51.362;7.370;2022-12-08T05:08:24;2.60;99.90
12885;DHT22;6510;51.362;7.370;2022-12-08T05:10:49;2.60;99.90
12885;DHT22;6510;51.362;7.370;2022-12-08T05:13:15;2.50;99.90
12885;DHT22;6510;51.362;7.370;2022-12-08T05:15:41;2.50;99.90
12885;DHT22;6510;51.362;7.370;2022-12-08T05:18:06;2.50;99.90
12885;DHT22;6510;51.362;7.370;2022-12-08T05:20:33;2.50;99.90
12885;DHT22;6510;51.362;7.370;2022-12-08T05:22:58;2.50;99.90
12885;DHT22;6510;51.362;7.370;2022-12-08T05:25:24;2.50;99.90
12885;DHT22;6510;51.362;7.370;2022-12-08T05:27:50;2.50;99.90
12885;DHT22;6510;51.362;7.370;2022-12-08T05:30:15;2.50;99.90
12885;DHT22;6510;51.362;7.370;2022-12-08T05:32:41;2.50;99.90
12885;DHT22;6510;51.362;7.370;2022-12-08T05:35:07;2.50;99.90
12885;DHT22;6510;51.362;7.370;2022-12-08T05:37:33;2.50;99.90
12885;DHT22;6510;51.362;7.370;2022-12-08T05:39:58;2.50;99.90
12885;DHT22;6510;51.362;7.370;2022-12-08T05:42:24;2.50;99.90
12885;DHT22;6510;51.362;7.370;2022-12-08T05:44:50;2.50;99.90
12885;DHT22;6510;51.362;7.370;2022-12-08T05:47:15;2.50;99.90
12885;DHT22;6510;51.362;7.370;2022-12-08T05:49:41;2.50;99.90
12885;DHT22;6510;51.362;7.370;2022-12-08T05:52:06;2.50;99.90
12885;DHT22;6510;51.362;7.370;2022-12-08T05:54:33;2.40;99.90
12885;DHT22;6510;51.362;7.370;2022-12-08T05:56:59;2.50;99.90
12885;DHT22;6510;51.362;7.370;2022-12-08T05:59:24;2.40;99.90
12885;DHT22;6510;51.362;7.370;2022-12-08T06:01:50;2.50;99.90
12885;DHT22;6510;51.362;7.370;2022-12-08T06:04:15;2.50;99.90
12885;DHT22;6510;51.362;7.370;2022-12-08T06:06:41;2.50;99.90
12885;DHT22;6510;51.362;7.370;2022-12-08T06:09:06;2.50;99.90
12885;DHT22;6510;51.362;7.370;2022-12-08T06:11:33;2.50;99.90
12885;DHT22;6510;51.362;7.370;2022-12-08T06:13:59;2.50;99.90
12885;DHT22;6510;51.362;7.370;2022-12-08T06:16:26;2.50;99.90
12885;DHT22;6510;51.362;7.370;2022-12-08T06:18:52;2.50;99.90
12885;DHT22;6510;51.362;7.370;2022-12-08T06:21:19;2.50;99.90
12885;DHT22;6510;51.362;7.370;2022-12-08T06:23:48;2.50;99.90
12885;DHT22;6510;51.362;7.370;2022-12-08T06:26:14;2.50;99.90
12885;DHT22;6510;51.362;7.370;2022-12-08T06:28:41;2.60;99.90
12885;DHT22;6510;51.362;7.370;2022-12-08T06:31:17;2.50;99.90
12885;DHT22;6510;51.362;7.370;2022-12-08T06:33:44;2.50;99.90
12885;DHT22;6510;51.362;7.370;2022-12-08T06:36:12;2.50;99.90
12885;DHT22;6510;51.362;7.370;2022-12-08T06:38:38;2.50;99.90
12885;DHT22;6510;51.362;7.370;2022-12-08T06:41:04;2.50;99.90
12885;DHT22;6510;51.362;7.370;2022-12-08T06:43:30;2.60;99.90
12885;DHT22;6510;51.362;7.370;2022-12-08T06:45:58;2.60;99.90
12885;DHT22;6510;51.362;7.370;2022-12-08T06:48:24;2.60;99.90
12885;DHT22;6510;51.362;7.370;2022-12-08T06:50:49;2.60;99.90
12885;DHT22;6510;51.362;7.370;2022-12-08T06:53:15;2.60;99.90
12885;DHT22;6510;51.362;7.370;2022-12-08T06:55:52;2.60;99.90
12885;DHT22;6510;51.362;7.370;2022-12-08T06:58:18;2.60;99.90
12885;DHT22;6510;51.362;7.370;2022-12-08T07:00:44;2.60;99.90
12885;DHT22;6510;51.362;7.370;2022-12-08T07:03:11;2.60;99.90
12885;DHT22;6510;51.362;7.370;2022-12-08T07:05:37;2.60;99.90
12885;DHT22;6510;51.362;7.370;2022-12-08T07:08:04;2.60;99.90
12885;DHT22;6510;51.362;7.370;2022-12-08T07:10:29;2.60;99.90
12885;DHT22;6510;51.362;7.370;2022-12-08T07:12:55;2.60;99.90
12885;DHT22;6510;51.362;7.370;2022-12-08T07:15:21;2.60;99.90
12885;DHT22;6510;51.362;7.370;2022-12-08T07:17:47;2.60;99.90
12885;DHT22;6510;51.362;7.370;2022-12-08T07:20:13;2.60;99.90
12885;DHT22;6510;51.362;7.370;2022-12-08T07:22:39;2.60;99.90
12885;DHT22;6510;51.362;7.370;2022-12-08T07:25:05;2.60;99.90
12885;DHT22;6510;51.362;7.370;2022-12-08T07:27:31;2.50;99.90
12885;DHT22;6510;51.362;7.370;2022-12-08T07:29:56;2.50;99.90
12885;DHT22;6510;51.362;7.370;2022-12-08T07:32:22;2.50;99.90
12885;DHT22;6510;51.362;7.370;2022-12-08T07:34:48;2.50;99.90
12885;DHT22;6510;51.362;7.370;2022-12-08T07:37:14;2.50;99.90
12885;DHT22;6510;51.362;7.370;2022-12-08T07:39:39;2.50;99.90
12885;DHT22;6510;51.362;7.370;2022-12-08T07:42:05;2.50;99.90
12885;DHT22;6510;51.362;7.370;2022-12-08T07:44:30;2.40;99.90
12885;DHT22;6510;51.362;7.370;2022-12-08T07:46:56;2.40;99.90
12885;DHT22;6510;51.362;7.370;2022-12-08T07:49:22;2.50;99.90
12885;DHT22;6510;51.362;7.370;2022-12-08T07:51:47;2.50;99.90
12885;DHT22;6510;51.362;7.370;2022-12-08T07:54:13;2.50;99.90
12885;DHT22;6510;51.362;7.370;2022-12-08T07:56:39;2.50;99.90
12885;DHT22;6510;51.362;7.370;2022-12-08T07:59:04;2.40;99.90
12885;DHT22;6510;51.362;7.370;2022-12-08T08:01:32;2.50;99.90
12885;DHT22;6510;51.362;7.370;2022-12-08T08:03:59;2.50;99.90
12885;DHT22;6510;51.362;7.370;2022-12-08T08:06:30;2.50;99.90
12885;DHT22;6510;51.362;7.370;2022-12-08T08:08:55;2.40;99.90
12885;DHT22;6510;51.362;7.370;2022-12-08T08:11:21;2.40;99.90
12885;DHT22;6510;51.362;7.370;2022-12-08T08:13:48;2.40;99.90
12885;DHT22;6510;51.362;7.370;2022-12-08T08:16:14;2.40;99.90
12885;DHT22;6510;51.362;7.370;2022-12-08T08:18:40;2.40;99.90
12885;DHT22;6510;51.362;7.370;2022-12-08T08:21:06;2.40;99.90
12885;DHT22;6510;51.362;7.370;2022-12-08T08:23:32;2.40;99.90
12885;DHT22;6510;51.362;7.370;2022-12-08T08:25:59;2.30;99.90
12885;DHT22;6510;51.362;7.370;2022-12-08T08:28:25;2.30;99.90
12885;DHT22;6510;51.362;7.370;2022-12-08T08:30:51;2.30;99.90
12885;DHT22;6510;51.362;7.370;2022-12-08T08:33:17;2.30;99.90
12885;DHT22;6510;51.362;7.370;2022-12-08T08:35:42;2.30;99.90
12885;DHT22;6510;51.362;7.370;2022-12-08T08:38:08;2.30;99.90
12885;DHT22;6510;51.362;7.370;2022-12-08T08:40:34;2.30;99.90
12885;DHT22;6510;51.362;7.370;2022-12-08T08:43:00;2.30;99.90
12885;DHT22;6510;51.362;7.370;2022-12-08T08:45:26;2.30;99.90
12885;DHT22;6510;51.362;7.370;2022-12-08T08:47:52;2.30;99.90
12885;DHT22;6510;51.362;7.370;2022-12-08T08:50:18;2.30;99.90
12885;DHT22;6510;51.362;7.370;2022-12-08T08:52:44;2.30;99.90
12885;DHT22;6510;51.362;7.370;2022-12-08T08:55:09;2.30;99.90
12885;DHT22;6510;51.362;7.370;2022-12-08T08:57:35;2.30;99.90
12885;DHT22;6510;51.362;7.370;2022-12-08T09:00:01;2.30;99.90
12885;DHT22;6510;51.362;7.370;2022-12-08T09:02:28;2.30;99.90
12885;DHT22;6510;51.362;7.370;2022-12-08T09:04:53;2.30;99.90
12885;DHT22;6510;51.362;7.370;2022-12-08T09:07:19;2.30;99.90
12885;DHT22;6510;51.362;7.370;2022-12-08T09:09:45;2.30;99.90
12885;DHT22;6510;51.362;7.370;2022-12-08T09:12:11;2.30;99.90
12885;DHT22;6510;51.362;7.370;2022-12-08T09:14:37;2.40;99.90
12885;DHT22;6510;51.362;7.370;2022-12-08T09:17:02;2.30;99.90
12885;DHT22;6510;51.362;7.370;2022-12-08T09:19:28;2.30;99.90
12885;DHT22;6510;51.362;7.370;2022-12-08T09:21:54;2.30;99.90
12885;DHT22;6510;51.362;7.370;2022-12-08T09:24:19;2.20;99.90
12885;DHT22;6510;51.362;7.370;2022-12-08T09:26:45;2.30;99.90
12885;DHT22;6510;51.362;7.370;2022-12-08T09:29:11;2.20;99.90
12885;DHT22;6510;51.362;7.370;2022-12-08T09:31:39;2.30;99.90
12885;DHT22;6510;51.362;7.370;2022-12-08T09:34:05;2.20;99.90
12885;DHT22;6510;51.362;7.370;2022-12-08T09:36:31;2.20;99.90
12885;DHT22;6510;51.362;7.370;2022-12-08T09:38:57;2.20;99.90
12885;DHT22;6510;51.362;7.370;2022-12-08T09:41:31;2.20;99.90
12885;DHT22;6510;51.362;7.370;2022-12-08T09:44:25;2.20;99.90
12885;DHT22;6510;51.362;7.370;2022-12-08T09:46:55;2.30;99.90
12885;DHT22;6510;51.362;7.370;2022-12-08T09:49:34;2.20;99.90
12885;DHT22;6510;51.362;7.370;2022-12-08T09:52:04;2.20;99.90
12885;DHT22;6510;51.362;7.370;2022-12-08T09:54:33;2.20;99.90
12885;DHT22;6510;51.362;7.370;2022-12-08T09:57:05;2.20;99.90
12885;DHT22;6510;51.362;7.370;2022-12-08T09:59:33;2.20;99.90
12885;DHT22;6510;51.362;7.370;2022-12-08T10:02:06;2.10;99.90
12885;DHT22;6510;51.362;7.370;2022-12-08T10:04:38;2.10;99.90
12885;DHT22;6510;51.362;7.370;2022-12-08T10:12:53;2.10;99.90
12885;DHT22;6510;51.362;7.370;2022-12-08T10:15:29;2.10;99.90
12885;DHT22;6510;51.362;7.370;2022-12-08T10:17:59;2.10;99.90
12885;DHT22;6510;51.362;7.370;2022-12-08T10:20:35;2.00;99.90
12885;DHT22;6510;51.362;7.370;2022-12-08T10:26:13;2.10;99.90
12885;DHT22;6510;51.362;7.370;2022-12-08T10:28:39;2.00;99.90
12885;DHT22;6510;51.362;7.370;2022-12-08T10:31:05;2.00;99.90
12885;DHT22;6510;51.362;7.370;2022-12-08T10:33:32;2.00;99.90
12885;DHT22;6510;51.362;7.370;2022-12-08T10:35:59;2.00;99.90
12885;DHT22;6510;51.362;7.370;2022-12-08T10:38:34;2.00;99.90
12885;DHT22;6510;51.362;7.370;2022-12-08T10:41:11;2.10;99.90
12885;DHT22;6510;51.362;7.370;2022-12-08T10:43:48;2.10;99.90
12885;DHT22;6510;51.362;7.370;2022-12-08T10:46:18;2.10;99.90
12885;DHT22;6510;51.362;7.370;2022-12-08T10:48:50;2.20;99.90
12885;DHT22;6510;51.362;7.370;2022-12-08T10:51:29;2.30;99.90
12885;DHT22;6510;51.362;7.370;2022-12-08T10:53:55;2.30;99.90
12885;DHT22;6510;51.362;7.370;2022-12-08T10:56:28;2.30;99.90
12885;DHT22;6510;51.362;7.370;2022-12-08T10:59:16;2.30;99.90
12885;DHT22;6510;51.362;7.370;2022-12-08T11:01:46;2.20;99.90
12885;DHT22;6510;51.362;7.370;2022-12-08T11:04:16;2.30;99.90
12885;DHT22;6510;51.362;7.370;2022-12-08T11:06:43;2.30;99.90
12885;DHT22;6510;51.362;7.370;2022-12-08T11:11:47;2.20;99.90
12885;DHT22;6510;51.362;7.370;2022-12-08T11:14:31;2.20;99.90
12885;DHT22;6510;51.362;7.370;2022-12-08T11:19:58;2.20;99.90
12885;DHT22;6510;51.362;7.370;2022-12-08T11:22:31;2.20;99.90
12885;DHT22;6510;51.362;7.370;2022-12-08T11:27:40;2.10;99.90
12885;DHT22;6510;51.362;7.370;2022-12-08T11:30:24;2.10;99.90
12885;DHT22;6510;51.362;7.370;2022-12-08T11:32:54;2.00;99.90
12885;DHT22;6510;51.362;7.370;2022-12-08T11:35:28;2.00;99.90
12885;DHT22;6510;51.362;7.370;2022-12-08T11:37:59;2.00;99.90
12885;DHT22;6510;51.362;7.370;2022-12-08T11:40:36;1.90;99.90
12885;DHT22;6510;51.362;7.370;2022-12-08T11:45:56;1.90;99.90
12885;DHT22;6510;51.362;7.370;2022-12-08T11:48:34;1.90;99.90
12885;DHT22;6510;51.362;7.370;2022-12-08T11:51:12;1.90;99.90
12885;DHT22;6510;51.362;7.370;2022-12-08T11:56:26;2.10;99.90
12885;DHT22;6510;51.362;7.370;2022-12-08T11:59:00;2.10;99.90
12885;DHT22;6510;51.362;7.370;2022-12-08T12:01:27;2.20;99.90
12885;DHT22;6510;51.362;7.370;2022-12-08T12:04:16;2.20;99.90
12885;DHT22;6510;51.362;7.370;2022-12-08T12:12:46;2.40;99.90
12885;DHT22;6510;51.362;7.370;2022-12-08T12:17:58;2.50;99.90
12885;DHT22;6510;51.362;7.370;2022-12-08T12:26:01;2.60;99.90
12885;DHT22;6510;51.362;7.370;2022-12-08T12:28:33;2.50;99.90
12885;DHT22;6510;51.362;7.370;2022-12-08T12:31:07;2.50;99.90
12885;DHT22;6510;51.362;7.370;2022-12-08T12:33:35;2.60;99.90
12885;DHT22;6510;51.362;7.370;2022-12-08T12:36:07;2.60;99.90
12885;DHT22;6510;51.362;7.370;2022-12-08T12:38:48;2.50;99.90
12885;DHT22;6510;51.362;7.370;2022-12-08T12:41:41;2.50;99.90
12885;DHT22;6510;51.362;7.370;2022-12-08T12:46:59;2.50;99.90
12885;DHT22;6510;51.362;7.370;2022-12-08T12:57:40;2.60;99.90
12885;DHT22;6510;51.362;7.370;2022-12-08T13:08:00;2.80;99.90
12885;DHT22;6510;51.362;7.370;2022-12-08T13:10:37;2.80;99.90
12885;DHT22;6510;51.362;7.370;2022-12-08T13:15:39;2.70;99.90
12885;DHT22;6510;51.362;7.370;2022-12-08T13:18:18;2.70;99.90
12885;DHT22;6510;51.362;7.370;2022-12-08T13:20:49;2.70;99.90
12885;DHT22;6510;51.362;7.370;2022-12-08T13:26:22;2.70;99.90
12885;DHT22;6510;51.362;7.370;2022-12-08T13:47:47;2.60;99.90
12885;DHT22;6510;51.362;7.370;2022-12-08T13:50:29;2.60;99.90
12885;DHT22;6510;51.362;7.370;2022-12-08T13:53:09;2.50;99.90
12885;DHT22;6510;51.362;7.370;2022-12-08T13:56:14;2.50;99.90
12885;DHT22;6510;51.362;7.370;2022-12-08T13:58:35;2.50;99.90
12885;DHT22;6510;51.362;7.370;2022-12-08T14:01:21;2.30;99.90
12885;DHT22;6510;51.362;7.370;2022-12-08T14:03:56;1.90;99.90
12885;DHT22;6510;51.362;7.370;2022-12-08T14:06:44;1.60;99.90
12885;DHT22;6510;51.362;7.370;2022-12-08T14:09:18;1.50;99.90
12885;DHT22;6510;51.362;7.370;2022-12-08T14:12:07;1.50;99.90
12885;DHT22;6510;51.362;7.370;2022-12-08T14:14:41;1.40;99.90
12885;DHT22;6510;51.362;7.370;2022-12-08T14:17:12;1.50;99.90
12885;DHT22;6510;51.362;7.370;2022-12-08T14:19:41;1.50;99.90
12885;DHT22;6510;51.362;7.370;2022-12-08T14:22:16;1.50;99.90
12885;DHT22;6510;51.362;7.370;2022-12-08T14:24:47;1.50;99.90
12885;DHT22;6510;51.362;7.370;2022-12-08T14:27:16;1.50;99.90
12885;DHT22;6510;51.362;7.370;2022-12-08T14:29:45;1.60;99.90
12885;DHT22;6510;51.362;7.370;2022-12-08T14:32:27;1.60;99.90
12885;DHT22;6510;51.362;7.370;2022-12-08T14:37:32;1.50;99.90
12885;DHT22;6510;51.362;7.370;2022-12-08T14:40:09;1.50;99.90
12885;DHT22;6510;51.362;7.370;2022-12-08T14:42:43;1.60;99.90
12885;DHT22;6510;51.362;7.370;2022-12-08T14:45:11;1.60;99.90
12885;DHT22;6510;51.362;7.370;2022-12-08T14:47:38;1.50;99.90
12885;DHT22;6510;51.362;7.370;2022-12-08T14:50:43;1.50;99.90
12885;DHT22;6510;51.362;7.370;2022-12-08T14:53:14;1.50;99.90
12885;DHT22;6510;51.362;7.370;2022-12-08T14:55:45;1.50;99.90
12885;DHT22;6510;51.362;7.370;2022-12-08T14:58:23;1.50;99.90
12885;DHT22;6510;51.362;7.370;2022-12-08T15:00:55;1.60;99.90
12885;DHT22;6510;51.362;7.370;2022-12-08T15:03:24;1.60;99.90
12885;DHT22;6510;51.362;7.370;2022-12-08T15:06:04;1.60;99.90
12885;DHT22;6510;51.362;7.370;2022-12-08T15:08:31;1.60;99.90
12885;DHT22;6510;51.362;7.370;2022-12-08T15:13:49;1.80;99.90
12885;DHT22;6510;51.362;7.370;2022-12-08T15:16:42;1.80;99.90
12885;DHT22;6510;51.362;7.370;2022-12-08T15:19:29;1.90;99.90
12885;DHT22;6510;51.362;7.370;2022-12-08T15:22:12;1.90;99.90
12885;DHT22;6510;51.362;7.370;2022-12-08T15:24:40;1.80;99.90
12885;DHT22;6510;51.362;7.370;2022-12-08T15:27:05;1.90;99.90
12885;DHT22;6510;51.362;7.370;2022-12-08T15:29:31;1.80;99.90
12885;DHT22;6510;51.362;7.370;2022-12-08T15:31:59;1.90;99.90
12885;DHT22;6510;51.362;7.370;2022-12-08T15:34:25;1.90;99.90
12885;DHT22;6510;51.362;7.370;2022-12-08T15:36:53;1.90;99.90
12885;DHT22;6510;51.362;7.370;2022-12-08T15:41:44;1.90;99.90
12885;DHT22;6510;51.362;7.370;2022-12-08T15:44:10;2.00;99.90
12885;DHT22;6510;51.362;7.370;2022-12-08T15:46:35;2.10;99.90
12885;DHT22;6510;51.362;7.370;2022-12-08T15:49:01;2.10;99.90
12885;DHT22;6510;51.362;7.370;2022-12-08T15:51:27;2.10;99.90
12885;DHT22;6510;51.362;7.370;2022-12-08T15:53:52;2.20;99.90
12885;DHT22;6510;51.362;7.370;2022-12-08T15:56:18;2.20;99.90
12885;DHT22;6510;51.362;7.370;2022-12-08T15:58:44;2.20;99.90
12885;DHT22;6510;51.362;7.370;2022-12-08T16:01:09;2.20;99.90
12885;DHT22;6510;51.362;7.370;2022-12-08T16:03:35;2.20;99.90
12885;DHT22;6510;51.362;7.370;2022-12-08T16:06:01;2.20;99.90
12885;DHT22;6510;51.362;7.370;2022-12-08T16:08:27;2.20;99.90
12885;DHT22;6510;51.362;7.370;2022-12-08T16:10:54;2.20;99.90
12885;DHT22;6510;51.362;7.370;2022-12-08T16:13:40;2.20;99.90
12885;DHT22;6510;51.362;7.370;2022-12-08T16:16:19;2.20;99.90
12885;DHT22;6510;51.362;7.370;2022-12-08T16:18:48;2.20;99.90
12885;DHT22;6510;51.362;7.370;2022-12-08T16:21:15;2.20;99.90
12885;DHT22;6510;51.362;7.370;2022-12-08T16:23:43;2.20;99.90
12885;DHT22;6510;51.362;7.370;2022-12-08T16:26:19;2.20;99.90
12885;DHT22;6510;51.362;7.370;2022-12-08T16:28:45;2.20;99.90
12885;DHT22;6510;51.362;7.370;2022-12-08T16:31:12;2.20;99.90
12885;DHT22;6510;51.362;7.370;2022-12-08T16:33:38;2.10;99.90
12885;DHT22;6510;51.362;7.370;2022-12-08T16:36:03;2.10;99.90
12885;DHT22;6510;51.362;7.370;2022-12-08T16:38:29;2.10;99.90
12885;DHT22;6510;51.362;7.370;2022-12-08T16:40:55;2.10;99.90
12885;DHT22;6510;51.362;7.370;2022-12-08T16:43:39;2.10;99.90
12885;DHT22;6510;51.362;7.370;2022-12-08T16:46:05;2.10;99.90
12885;DHT22;6510;51.362;7.370;2022-12-08T16:48:31;2.10;99.90
12885;DHT22;6510;51.362;7.370;2022-12-08T16:50:56;2.10;99.90
12885;DHT22;6510;51.362;7.370;2022-12-08T16:53:22;2.10;99.90
12885;DHT22;6510;51.362;7.370;2022-12-08T16:55:49;2.10;99.90
12885;DHT22;6510;51.362;7.370;2022-12-08T16:58:15;2.10;99.90
12885;DHT22;6510;51.362;7.370;2022-12-08T17:00:42;2.10;99.90
12885;DHT22;6510;51.362;7.370;2022-12-08T17:03:09;2.10;99.90
12885;DHT22;6510;51.362;7.370;2022-12-08T17:05:38;2.10;99.90
12885;DHT22;6510;51.362;7.370;2022-12-08T17:08:04;2.10;99.90
12885;DHT22;6510;51.362;7.370;2022-12-08T17:10:30;2.10;99.90
12885;DHT22;6510;51.362;7.370;2022-12-08T17:13:00;2.10;99.90
12885;DHT22;6510;51.362;7.370;2022-12-08T17:15:25;2.10;99.90
12885;DHT22;6510;51.362;7.370;2022-12-08T17:18:01;2.20;99.90
12885;DHT22;6510;51.362;7.370;2022-12-08T17:20:28;2.10;99.90
12885;DHT22;6510;51.362;7.370;2022-12-08T17:22:55;2.10;99.90
12885;DHT22;6510;51.362;7.370;2022-12-08T17:25:21;2.10;99.90
12885;DHT22;6510;51.362;7.370;2022-12-08T17:27:47;2.10;99.90
12885;DHT22;6510;51.362;7.370;2022-12-08T17:30:13;2.10;99.90
12885;DHT22;6510;51.362;7.370;2022-12-08T17:32:40;2.10;99.90
12885;DHT22;6510;51.362;7.370;2022-12-08T17:35:07;2.10;99.90
12885;DHT22;6510;51.362;7.370;2022-12-08T17:37:33;2.10;99.90
12885;DHT22;6510;51.362;7.370;2022-12-08T17:39:59;2.10;99.90
12885;DHT22;6510;51.362;7.370;2022-12-08T17:42:24;2.10;99.90
12885;DHT22;6510;51.362;7.370;2022-12-08T17:44:52;2.10;99.90
12885;DHT22;6510;51.362;7.370;2022-12-08T17:47:17;2.10;99.90
12885;DHT22;6510;51.362;7.370;2022-12-08T17:49:43;2.10;99.90
12885;DHT22;6510;51.362;7.370;2022-12-08T17:52:09;2.10;99.90
12885;DHT22;6510;51.362;7.370;2022-12-08T17:54:36;2.10;99.90
12885;DHT22;6510;51.362;7.370;2022-12-08T17:57:02;2.10;99.90
12885;DHT22;6510;51.362;7.370;2022-12-08T17:59:28;2.10;99.90
12885;DHT22;6510;51.362;7.370;2022-12-08T18:01:56;2.10;99.90
12885;DHT22;6510;51.362;7.370;2022-12-08T18:04:23;2.10;99.90
12885;DHT22;6510;51.362;7.370;2022-12-08T18:06:49;2.10;99.90
12885;DHT22;6510;51.362;7.370;2022-12-08T18:09:14;2.10;99.90
12885;DHT22;6510;51.362;7.370;2022-12-08T18:11:41;2.10;99.90
12885;DHT22;6510;51.362;7.370;2022-12-08T18:14:08;2.10;99.90